Time;durP1;ratioP1;P1;durP2;ratioP2;P2;SDS_P1;SDS_P2;PMS_P1;PMS_P2;Temp;Humidity;BMP_temperature;BMP_pressure;BME280_temperature;BME280_humidity;BME280_pressure;Samples;Min_cycle;Max_cycle;Signal;HPM_P1;HPM_P2
2022/03/16 00:01:41;;;;;;;83.90;74.40;;;27.90;99.90;;;;;;4161642;28;20041;-76
2022/03/16 00:03:46;;;;;;;86.07;76.10;;;27.70;99.90;;;;;;4163820;28;20060;-74
2022/03/16 00:05:50;;;;;;;85.70;76.30;;;27.70;99.90;;;;;;4164467;28;20051;-76
2022/03/16 00:07:56;;;;;;;82.70;74.00;;;27.70;99.90;;;;;;4164395;28;20148;-75
2022/03/16 00:10:04;;;;;;;88.85;77.72;;;27.60;99.90;;;;;;4164903;28;20468;-75
2022/03/16 00:12:10;;;;;;;87.45;77.15;;;27.80;99.90;;;;;;4163908;28;20041;-76
2022/03/16 00:14:18;;;;;;;88.22;78.53;;;27.70;99.90;;;;;;4164251;28;20069;-75
2022/03/16 00:16:24;;;;;;;96.13;84.95;;;27.70;99.90;;;;;;4164020;28;20072;-75
2022/03/16 00:18:29;;;;;;;87.57;76.70;;;27.80;99.90;;;;;;4164072;28;20049;-76
2022/03/16 00:20:36;;;;;;;85.60;76.43;;;27.90;99.90;;;;;;4164170;28;20535;-76
2022/03/16 00:22:41;;;;;;;82.20;73.18;;;27.80;99.90;;;;;;4145661;28;20078;-75
2022/03/16 00:24:45;;;;;;;85.88;76.57;;;27.80;99.90;;;;;;4128506;28;20066;-75
2022/03/16 00:26:50;;;;;;;82.40;73.38;;;27.80;99.90;;;;;;4145374;28;20064;-75
2022/03/16 00:28:54;;;;;;;85.13;74.32;;;27.70;99.90;;;;;;4131801;28;20182;-75
2022/03/16 00:30:59;;;;;;;83.30;74.28;;;27.80;99.90;;;;;;4145667;28;20133;-75
2022/03/16 00:33:06;;;;;;;83.68;74.70;;;27.70;99.90;;;;;;4129170;28;20133;-75
2022/03/16 00:35:12;;;;;;;86.28;77.03;;;27.70;99.90;;;;;;4143483;28;20046;-77
2022/03/16 00:37:17;;;;;;;91.88;80.38;;;27.80;99.90;;;;;;4129033;28;20053;-76
2022/03/16 00:39:23;;;;;;;91.28;81.10;;;27.90;99.90;;;;;;4130397;28;20039;-75
2022/03/16 00:41:30;;;;;;;90.90;81.20;;;27.90;99.90;;;;;;4145404;28;20104;-76
2022/03/16 00:43:34;;;;;;;84.15;75.03;;;28.10;99.90;;;;;;4146113;28;20084;-75
2022/03/16 00:45:40;;;;;;;83.45;74.43;;;28.10;99.90;;;;;;4130312;28;20061;-76
2022/03/16 00:47:46;;;;;;;88.85;74.50;;;28.20;99.90;;;;;;4146032;28;20048;-76
2022/03/16 00:49:52;;;;;;;99.53;80.05;;;28.30;99.90;;;;;;4129952;28;20585;-74
2022/03/16 00:51:59;;;;;;;95.35;78.00;;;28.30;99.90;;;;;;4116530;28;20522;-77
2022/03/16 00:54:06;;;;;;;93.00;80.65;;;27.90;99.90;;;;;;4156355;28;20042;-77
2022/03/16 00:56:11;;;;;;;86.97;76.03;;;27.80;99.90;;;;;;4166674;28;20049;-77
2022/03/16 00:58:19;;;;;;;82.95;73.93;;;27.40;99.90;;;;;;4147647;28;20073;-77
2022/03/16 01:00:26;;;;;;;84.00;72.82;;;27.40;99.90;;;;;;4161415;28;20054;-76
2022/03/16 01:02:32;;;;;;;79.38;70.82;;;27.50;99.90;;;;;;4162259;28;20080;-77
2022/03/16 01:04:39;;;;;;;75.00;67.07;;;27.40;99.90;;;;;;4168928;28;20812;-75
2022/03/16 01:06:44;;;;;;;72.22;62.75;;;27.40;99.90;;;;;;4145590;28;20045;-77
2022/03/16 01:08:48;;;;;;;72.60;63.75;;;27.40;99.90;;;;;;4184148;28;20052;-77
2022/03/16 01:10:53;;;;;;;72.55;64.68;;;27.50;99.90;;;;;;4159629;28;20484;-76
2022/03/16 01:12:59;;;;;;;66.40;56.00;;;27.60;99.90;;;;;;4164420;28;20045;-75
2022/03/16 01:15:04;;;;;;;53.08;47.13;;;27.40;99.90;;;;;;4166124;28;20080;-76
2022/03/16 01:17:10;;;;;;;49.90;44.47;;;26.70;99.90;;;;;;4155595;28;20057;-75
2022/03/16 01:19:15;;;;;;;42.00;36.55;;;26.70;99.90;;;;;;4188962;28;20245;-75
2022/03/16 01:21:23;;;;;;;29.38;26.38;;;26.60;99.90;;;;;;4165822;28;20043;-75
2022/03/16 01:23:30;;;;;;;28.10;25.08;;;26.40;99.90;;;;;;4172507;28;20056;-76
2022/03/16 01:25:37;;;;;;;26.45;23.60;;;26.60;99.90;;;;;;4166248;28;20045;-76
2022/03/16 01:27:42;;;;;;;23.40;20.08;;;26.70;99.90;;;;;;4165860;28;20053;-76
2022/03/16 01:29:46;;;;;;;18.67;16.70;;;26.50;99.90;;;;;;4164508;28;20059;-73
2022/03/16 01:31:52;;;;;;;18.73;16.75;;;26.20;99.90;;;;;;4165046;28;20065;-75
2022/03/16 01:33:59;;;;;;;18.50;15.75;;;26.30;99.90;;;;;;4163377;28;20044;-75
2022/03/16 01:36:06;;;;;;;12.23;10.95;;;26.30;99.90;;;;;;4165454;28;20067;-75
2022/03/16 01:38:13;;;;;;;11.55;9.90;;;26.40;99.90;;;;;;4158119;28;20044;-75
2022/03/16 01:40:17;;;;;;;10.48;8.10;;;26.60;99.90;;;;;;4162767;28;20053;-74
2022/03/16 01:42:27;;;;;;;11.90;7.95;;;26.30;99.90;;;;;;4164207;28;20061;-75
2022/03/16 01:44:44;;;;;;;14.23;9.70;;;26.30;99.90;;;;;;4161074;28;20124;-74
2022/03/16 01:46:49;;;;;;;11.35;9.30;;;26.30;99.90;;;;;;4158611;28;20065;-74
2022/03/16 01:48:58;;;;;;;14.60;10.30;;;26.50;99.90;;;;;;4186448;28;20807;-77
2022/03/16 01:51:03;;;;;;;10.20;8.63;;;26.70;99.90;;;;;;4156373;28;20443;-75
2022/03/16 01:53:18;;;;;;;12.10;9.90;;;26.80;99.90;;;;;;4161432;28;20048;-76
2022/03/16 01:55:24;;;;;;;11.90;10.70;;;26.80;99.90;;;;;;4144484;28;20050;-75
2022/03/16 01:57:29;;;;;;;13.25;10.68;;;26.20;99.90;;;;;;4160592;28;22138;-75
2022/03/16 01:59:33;;;;;;;13.18;11.27;;;26.10;99.90;;;;;;4179719;28;20047;-75
2022/03/16 02:01:44;;;;;;;14.50;11.77;;;26.30;99.90;;;;;;4177909;28;20078;-76
2022/03/16 02:03:49;;;;;;;15.05;12.15;;;26.50;99.90;;;;;;4162610;28;20080;-77
2022/03/16 02:05:54;;;;;;;16.48;12.50;;;26.70;99.90;;;;;;4169432;28;20664;-74
2022/03/16 02:08:10;;;;;;;15.85;12.98;;;26.70;99.90;;;;;;4158385;28;20073;-75
2022/03/16 02:10:15;;;;;;;14.27;12.52;;;26.70;99.90;;;;;;4162419;28;20536;-74
2022/03/16 02:12:20;;;;;;;11.93;10.30;;;26.80;99.90;;;;;;4158002;28;20054;-74
2022/03/16 02:14:28;;;;;;;12.95;10.40;;;26.90;99.90;;;;;;4164654;28;20124;-76
2022/03/16 02:16:36;;;;;;;12.63;11.20;;;26.80;99.90;;;;;;4163449;28;20065;-77
2022/03/16 02:18:41;;;;;;;12.82;10.88;;;26.80;99.90;;;;;;4165476;28;20421;-76
2022/03/16 02:20:50;;;;;;;13.30;11.25;;;27.00;99.90;;;;;;4164680;28;20050;-74
2022/03/16 02:22:56;;;;;;;12.63;11.18;;;27.10;99.90;;;;;;4163629;28;20049;-73
2022/03/16 02:25:01;;;;;;;12.40;10.73;;;26.90;99.90;;;;;;4160143;28;20041;-75
2022/03/16 02:27:06;;;;;;;12.65;11.32;;;26.70;99.90;;;;;;4166429;28;20511;-77
2022/03/16 02:29:11;;;;;;;14.10;12.63;;;26.20;99.90;;;;;;4165393;28;20088;-74
2022/03/16 02:31:17;;;;;;;17.35;14.73;;;26.10;99.90;;;;;;4164479;28;20079;-73
2022/03/16 02:33:27;;;;;;;19.40;16.13;;;25.90;99.90;;;;;;4161726;28;20791;-73
2022/03/16 02:35:32;;;;;;;17.67;15.77;;;26.10;99.90;;;;;;4163984;28;20132;-74
2022/03/16 02:37:39;;;;;;;18.85;16.85;;;26.30;99.90;;;;;;4183657;28;20566;-75
2022/03/16 02:39:48;;;;;;;20.13;17.70;;;26.50;99.90;;;;;;4185572;28;20127;-74
2022/03/16 02:41:53;;;;;;;19.58;17.67;;;26.70;99.90;;;;;;4151177;28;20076;-75
2022/03/16 02:43:58;;;;;;;19.00;17.13;;;26.80;99.90;;;;;;4148378;28;20068;-77
2022/03/16 02:46:07;;;;;;;20.25;18.02;;;26.90;99.90;;;;;;4184771;28;20139;-76
2022/03/16 02:48:12;;;;;;;21.33;19.00;;;27.00;99.90;;;;;;4163005;28;20041;-76
2022/03/16 02:50:19;;;;;;;20.45;18.40;;;27.10;99.90;;;;;;4164235;28;20041;-76
2022/03/16 02:52:27;;;;;;;21.23;18.38;;;26.80;99.90;;;;;;4143972;28;20056;-74
2022/03/16 02:54:31;;;;;;;22.10;19.80;;;26.80;99.90;;;;;;4134971;28;20054;-74
2022/03/16 02:56:36;;;;;;;20.70;18.60;;;26.80;99.90;;;;;;4167475;28;20099;-74
2022/03/16 02:58:45;;;;;;;22.25;19.90;;;27.10;99.90;;;;;;4115817;28;20050;-74
2022/03/16 03:00:50;;;;;;;22.52;20.23;;;27.20;99.90;;;;;;4168405;28;20037;-75
2022/03/16 03:02:55;;;;;;;23.38;20.90;;;27.20;99.90;;;;;;4167978;28;20049;-75
2022/03/16 03:05:03;;;;;;;26.60;23.40;;;27.10;99.90;;;;;;4180276;28;20111;-75
2022/03/16 03:07:10;;;;;;;27.30;24.42;;;27.10;99.90;;;;;;4168683;28;20038;-76
2022/03/16 03:09:15;;;;;;;30.98;25.23;;;26.80;99.90;;;;;;4166675;28;20089;-75
2022/03/16 03:11:21;;;;;;;33.03;27.10;;;27.00;99.90;;;;;;4169399;28;20045;-74
2022/03/16 03:13:26;;;;;;;33.03;27.95;;;27.10;99.90;;;;;;4170933;28;20056;-75
2022/03/16 03:15:32;;;;;;;36.03;29.73;;;27.30;99.90;;;;;;4168099;28;20037;-75
2022/03/16 03:17:43;;;;;;;42.85;32.22;;;27.20;99.90;;;;;;4166757;28;20048;-75
2022/03/16 03:19:48;;;;;;;36.42;30.80;;;27.10;99.90;;;;;;4160580;28;20115;-74
2022/03/16 03:21:52;;;;;;;35.97;29.77;;;26.90;99.90;;;;;;4163751;28;20518;-75
2022/03/16 03:24:02;;;;;;;35.53;30.65;;;26.90;99.90;;;;;;4185612;28;20135;-74
2022/03/16 03:26:10;;;;;;;36.30;32.40;;;26.90;99.90;;;;;;4164853;28;20052;-74
2022/03/16 03:28:16;;;;;;;36.38;32.33;;;27.00;99.90;;;;;;4159828;28;20103;-74
2022/03/16 03:30:25;;;;;;;37.28;33.30;;;27.10;99.90;;;;;;4165046;28;20049;-74
2022/03/16 03:32:29;;;;;;;38.58;34.30;;;27.10;99.90;;;;;;4164092;28;20516;-74
2022/03/16 03:34:34;;;;;;;38.97;34.80;;;27.20;99.90;;;;;;4163604;28;20049;-74
2022/03/16 03:36:43;;;;;;;39.65;35.28;;;27.00;99.90;;;;;;4161805;28;20511;-74
2022/03/16 03:38:48;;;;;;;39.45;35.20;;;27.10;99.90;;;;;;4164369;28;20041;-73
2022/03/16 03:40:53;;;;;;;40.70;36.28;;;27.20;99.90;;;;;;4164719;28;20056;-73
2022/03/16 03:43:00;;;;;;;40.83;36.47;;;27.10;99.90;;;;;;4185903;28;20071;-73
2022/03/16 03:45:05;;;;;;;40.58;36.42;;;27.10;99.90;;;;;;4162711;28;20563;-71
2022/03/16 03:47:12;;;;;;;45.92;39.15;;;27.30;99.90;;;;;;4147355;28;20061;-73
2022/03/16 03:49:22;;;;;;;40.67;36.35;;;27.30;99.90;;;;;;4139058;28;20783;-73
2022/03/16 03:51:26;;;;;;;42.25;37.70;;;27.30;99.90;;;;;;4141919;28;20049;-74
2022/03/16 03:53:31;;;;;;;42.25;37.50;;;27.40;99.90;;;;;;4163762;28;20075;-74
2022/03/16 03:55:38;;;;;;;43.78;38.50;;;27.40;99.90;;;;;;4145101;28;20042;-75
2022/03/16 03:57:43;;;;;;;40.42;36.00;;;27.50;99.90;;;;;;4164491;28;20052;-75
2022/03/16 03:59:48;;;;;;;40.80;36.50;;;27.50;99.90;;;;;;4164544;28;20055;-76
2022/03/16 04:01:57;;;;;;;39.92;35.75;;;27.60;99.90;;;;;;4164190;28;20476;-76
2022/03/16 04:04:04;;;;;;;38.22;34.13;;;27.70;99.90;;;;;;4163354;28;20104;-76
2022/03/16 04:06:11;;;;;;;35.17;31.52;;;27.80;99.90;;;;;;4145871;28;20045;-76
2022/03/16 04:08:19;;;;;;;35.80;32.00;;;27.80;99.90;;;;;;4162430;28;20650;-77
2022/03/16 04:10:23;;;;;;;35.95;32.13;;;27.80;99.90;;;;;;4145367;28;20755;-76
2022/03/16 04:12:28;;;;;;;36.63;32.70;;;27.80;99.90;;;;;;4145408;28;20756;-76
2022/03/16 04:14:36;;;;;;;34.90;30.08;;;27.70;99.90;;;;;;4163282;28;20053;-76
2022/03/16 04:16:41;;;;;;;33.67;30.10;;;27.70;99.90;;;;;;4161681;28;20045;-76
2022/03/16 04:18:48;;;;;;;35.33;31.23;;;27.70;99.90;;;;;;4162898;28;20037;-74
2022/03/16 04:20:53;;;;;;;36.13;30.55;;;27.70;99.90;;;;;;4160533;28;20052;-76
2022/03/16 04:22:57;;;;;;;33.03;29.70;;;27.70;99.90;;;;;;4161675;28;20104;-76
2022/03/16 04:25:02;;;;;;;35.00;31.27;;;27.70;99.90;;;;;;4162033;28;20049;-76
2022/03/16 04:27:10;;;;;;;34.33;30.42;;;27.70;99.90;;;;;;4162439;28;20107;-76
2022/03/16 04:29:15;;;;;;;31.25;27.63;;;27.70;99.90;;;;;;4185045;28;20691;-76
2022/03/16 04:31:21;;;;;;;31.38;26.75;;;27.70;99.90;;;;;;4162760;28;20189;-74
2022/03/16 04:33:30;;;;;;;28.90;25.83;;;27.70;99.90;;;;;;4145822;28;20046;-74
2022/03/16 04:35:35;;;;;;;30.40;26.27;;;27.70;99.90;;;;;;4164874;28;20047;-72
2022/03/16 04:37:40;;;;;;;28.50;24.75;;;27.70;99.90;;;;;;4164720;28;20092;-74
2022/03/16 04:39:47;;;;;;;31.52;27.83;;;27.60;99.90;;;;;;4162638;28;20049;-73
2022/03/16 04:41:51;;;;;;;32.20;28.85;;;27.40;99.90;;;;;;4185271;28;20366;-74
2022/03/16 04:43:56;;;;;;;31.35;27.63;;;27.30;99.90;;;;;;4161733;28;20431;-73
2022/03/16 04:46:04;;;;;;;32.85;29.40;;;27.20;99.90;;;;;;4165285;28;20053;-73
2022/03/16 04:48:11;;;;;;;31.08;27.67;;;27.30;99.90;;;;;;4165597;28;20377;-73
2022/03/16 04:50:16;;;;;;;36.58;31.48;;;27.40;99.90;;;;;;4187032;28;20635;-73
2022/03/16 04:52:25;;;;;;;34.70;30.15;;;27.40;99.90;;;;;;4163409;28;20045;-74
2022/03/16 04:54:30;;;;;;;35.78;31.25;;;27.20;99.90;;;;;;4162241;28;20049;-74
2022/03/16 04:56:38;;;;;;;36.35;32.63;;;27.10;99.90;;;;;;4163767;28;20084;-74
2022/03/16 04:58:44;;;;;;;36.03;32.20;;;27.30;99.90;;;;;;4164068;28;20071;-71
2022/03/16 05:00:49;;;;;;;39.47;32.85;;;27.40;99.90;;;;;;4163864;28;20064;-71
2022/03/16 05:02:54;;;;;;;37.95;33.75;;;27.40;99.90;;;;;;4163713;28;20041;-74
2022/03/16 05:05:03;;;;;;;35.78;32.03;;;27.40;99.90;;;;;;4164722;28;20103;-73
2022/03/16 05:07:09;;;;;;;39.38;34.95;;;27.20;99.90;;;;;;4163959;28;20046;-73
2022/03/16 05:09:13;;;;;;;39.80;34.42;;;27.20;99.90;;;;;;4164595;28;20128;-72
2022/03/16 05:11:22;;;;;;;39.85;35.58;;;27.40;99.90;;;;;;4163631;28;20496;-72
2022/03/16 05:13:27;;;;;;;40.50;36.05;;;27.60;99.90;;;;;;4163760;28;20124;-71
2022/03/16 05:15:32;;;;;;;42.05;37.45;;;27.50;99.90;;;;;;4163873;28;20049;-71
2022/03/16 05:17:39;;;;;;;42.50;37.95;;;27.50;99.90;;;;;;4161678;28;20041;-72
2022/03/16 05:19:44;;;;;;;39.58;34.75;;;27.60;99.90;;;;;;4163718;28;20045;-73
2022/03/16 05:21:48;;;;;;;36.95;33.00;;;27.50;99.90;;;;;;4161653;28;20164;-72
2022/03/16 05:23:55;;;;;;;38.33;33.20;;;27.50;99.90;;;;;;4162464;28;20099;-72
2022/03/16 05:26:00;;;;;;;35.00;29.60;;;27.70;99.90;;;;;;4162851;28;20049;-72
2022/03/16 05:28:05;;;;;;;31.55;28.25;;;27.70;99.90;;;;;;4160949;28;20045;-72
2022/03/16 05:30:14;;;;;;;28.70;25.63;;;27.90;99.90;;;;;;4162973;28;20462;-72
2022/03/16 05:32:18;;;;;;;27.70;24.80;;;28.10;99.90;;;;;;4162932;28;20806;-72
2022/03/16 05:34:24;;;;;;;26.77;23.98;;;28.10;99.90;;;;;;4163770;28;20050;-73
2022/03/16 05:36:32;;;;;;;25.23;22.63;;;28.00;99.90;;;;;;4163701;28;20075;-72
2022/03/16 05:38:40;;;;;;;26.98;22.48;;;27.90;99.90;;;;;;4163918;28;20466;-72
2022/03/16 05:40:45;;;;;;;25.67;22.02;;;27.90;99.90;;;;;;4161185;28;20049;-71
2022/03/16 05:42:57;;;;;;;25.25;22.70;;;28.00;99.90;;;;;;4190446;28;20052;-71
2022/03/16 05:45:01;;;;;;;26.02;23.00;;;27.90;99.90;;;;;;4158010;28;20559;-72
2022/03/16 05:47:06;;;;;;;26.88;23.17;;;28.10;99.90;;;;;;4163634;28;20037;-72
2022/03/16 05:49:15;;;;;;;25.85;22.98;;;28.30;99.90;;;;;;4163257;28;20040;-72
2022/03/16 05:51:20;;;;;;;24.65;22.05;;;28.40;99.90;;;;;;4189437;28;20051;-72
2022/03/16 05:53:24;;;;;;;23.70;21.13;;;28.40;99.90;;;;;;4159964;28;20129;-71
2022/03/16 05:55:34;;;;;;;22.27;18.92;;;28.40;99.90;;;;;;4162927;28;20488;-72
2022/03/16 05:57:43;;;;;;;22.77;20.33;;;28.40;99.90;;;;;;4163476;28;20048;-72
2022/03/16 05:59:51;;;;;;;22.33;19.38;;;28.40;99.90;;;;;;4163213;28;20496;-72
2022/03/16 06:01:59;;;;;;;24.63;19.42;;;28.40;99.90;;;;;;4161805;28;20096;-72
2022/03/16 06:04:04;;;;;;;23.17;19.77;;;28.40;99.90;;;;;;4162700;28;20385;-72
2022/03/16 06:06:09;;;;;;;22.02;19.42;;;28.40;99.90;;;;;;4163155;28;20461;-71
2022/03/16 06:08:18;;;;;;;23.42;19.80;;;28.10;99.90;;;;;;4163080;28;20491;-71
2022/03/16 06:10:23;;;;;;;29.85;22.27;;;28.10;99.90;;;;;;4162910;28;20042;-71
2022/03/16 06:12:28;;;;;;;22.98;19.55;;;28.40;99.90;;;;;;4162808;28;20488;-71
2022/03/16 06:14:36;;;;;;;23.58;20.10;;;28.50;99.90;;;;;;4162906;28;20091;-71
2022/03/16 06:16:41;;;;;;;23.80;21.27;;;28.10;99.90;;;;;;4163090;28;20045;-72
2022/03/16 06:18:45;;;;;;;23.67;21.13;;;28.30;99.90;;;;;;4162823;28;20053;-72
2022/03/16 06:20:54;;;;;;;22.38;19.88;;;28.10;99.90;;;;;;4163032;28;20048;-71
2022/03/16 06:22:59;;;;;;;23.40;20.90;;;28.30;99.90;;;;;;4162528;28;20111;-70
2022/03/16 06:25:07;;;;;;;23.80;21.10;;;28.50;99.90;;;;;;4162649;28;20045;-72
2022/03/16 06:27:16;;;;;;;26.30;21.02;;;28.50;99.90;;;;;;4162753;28;20581;-72
2022/03/16 06:29:20;;;;;;;23.00;20.60;;;28.60;99.90;;;;;;4162541;28;20077;-71
2022/03/16 06:31:26;;;;;;;25.38;21.50;;;28.30;99.90;;;;;;4163021;28;20045;-72
2022/03/16 06:33:34;;;;;;;25.73;21.42;;;28.30;99.90;;;;;;4162404;28;20172;-72
2022/03/16 06:35:39;;;;;;;22.73;20.33;;;28.40;99.90;;;;;;4165722;28;20180;-72
2022/03/16 06:37:43;;;;;;;24.20;19.98;;;28.60;99.90;;;;;;4161104;28;20053;-70
2022/03/16 06:39:50;;;;;;;22.90;20.52;;;28.60;99.90;;;;;;4172429;28;20656;-72
2022/03/16 06:41:55;;;;;;;24.42;21.13;;;28.50;99.90;;;;;;4160739;28;20068;-74
2022/03/16 06:43:59;;;;;;;25.98;20.40;;;28.60;99.90;;;;;;4168216;28;20053;-73
2022/03/16 06:46:08;;;;;;;22.85;20.40;;;28.60;99.90;;;;;;4167447;28;20056;-72
2022/03/16 06:48:13;;;;;;;26.45;21.73;;;28.50;99.90;;;;;;4167041;28;20037;-73
2022/03/16 06:50:18;;;;;;;24.13;20.63;;;28.50;99.90;;;;;;4168591;28;20475;-73
2022/03/16 06:52:27;;;;;;;23.67;21.15;;;28.50;99.90;;;;;;4168036;28;20080;-72
2022/03/16 06:54:32;;;;;;;24.55;21.65;;;28.40;99.90;;;;;;4165441;28;20054;-73
2022/03/16 06:56:38;;;;;;;23.55;21.02;;;28.30;99.90;;;;;;4168651;28;20044;-72
2022/03/16 06:58:45;;;;;;;23.45;20.92;;;28.50;99.90;;;;;;4168372;28;20063;-72
2022/03/16 07:00:51;;;;;;;25.50;20.45;;;28.50;99.90;;;;;;4158029;28;20099;-72
2022/03/16 07:02:58;;;;;;;24.15;21.65;;;28.50;99.90;;;;;;4168601;28;20040;-72
2022/03/16 07:05:07;;;;;;;24.00;21.58;;;28.60;99.90;;;;;;4176212;28;20523;-73
2022/03/16 07:07:17;;;;;;;26.83;22.23;;;28.80;99.90;;;;;;4155264;28;20041;-72
2022/03/16 07:09:22;;;;;;;24.58;21.50;;;29.00;99.90;;;;;;4159233;28;20057;-71
2022/03/16 07:11:30;;;;;;;24.58;22.02;;;28.90;99.60;;;;;;4155512;28;20053;-73
2022/03/16 07:13:34;;;;;;;27.02;24.20;;;28.80;99.20;;;;;;4143032;28;20034;-74
2022/03/16 07:15:40;;;;;;;28.05;22.77;;;28.80;98.60;;;;;;4160610;28;20049;-73
2022/03/16 07:17:47;;;;;;;25.27;21.08;;;28.90;99.20;;;;;;4138802;28;20046;-71
2022/03/16 07:19:52;;;;;;;27.55;21.33;;;29.00;98.80;;;;;;4154636;28;20053;-72
2022/03/16 07:22:00;;;;;;;23.92;21.45;;;29.10;98.60;;;;;;4159881;28;20083;-72
2022/03/16 07:24:07;;;;;;;22.73;19.88;;;29.20;99.30;;;;;;4160015;28;20049;-72
2022/03/16 07:26:12;;;;;;;22.65;19.83;;;29.10;99.20;;;;;;4159430;28;20048;-70
2022/03/16 07:28:18;;;;;;;22.23;19.90;;;28.90;99.20;;;;;;4159340;28;20056;-72
2022/03/16 07:30:25;;;;;;;22.38;18.95;;;28.80;99.30;;;;;;4141888;28;20187;-72
2022/03/16 07:32:30;;;;;;;21.05;18.52;;;28.90;99.40;;;;;;4157492;28;20114;-71
2022/03/16 07:34:35;;;;;;;22.67;19.85;;;28.90;99.40;;;;;;4158874;28;20041;-73
2022/03/16 07:36:41;;;;;;;20.08;17.98;;;28.90;99.10;;;;;;4159356;28;20053;-72
2022/03/16 07:38:47;;;;;;;21.75;19.17;;;28.90;99.20;;;;;;4160613;28;20050;-71
2022/03/16 07:40:53;;;;;;;21.85;18.73;;;29.00;99.20;;;;;;4162469;28;20136;-73
2022/03/16 07:42:58;;;;;;;20.77;18.58;;;29.10;99.20;;;;;;4161491;28;20037;-72
2022/03/16 07:45:04;;;;;;;22.40;19.25;;;29.10;98.80;;;;;;4164915;28;20457;-71
2022/03/16 07:47:10;;;;;;;21.52;18.58;;;29.10;99.00;;;;;;4163429;28;20052;-72
2022/03/16 07:49:20;;;;;;;25.55;19.95;;;29.20;98.90;;;;;;4163924;28;20124;-72
2022/03/16 07:51:25;;;;;;;21.67;19.35;;;29.10;98.70;;;;;;4165079;28;20049;-71
2022/03/16 07:53:30;;;;;;;23.83;19.60;;;28.90;99.20;;;;;;4164771;28;20140;-72
2022/03/16 07:55:39;;;;;;;21.17;19.05;;;29.00;99.20;;;;;;4147926;28;20104;-72
2022/03/16 07:57:44;;;;;;;22.02;19.65;;;28.90;99.20;;;;;;4164995;28;20435;-72
2022/03/16 07:59:49;;;;;;;21.70;19.00;;;28.90;99.50;;;;;;4162901;28;20101;-72
2022/03/16 08:01:58;;;;;;;22.90;19.70;;;28.80;99.40;;;;;;4157590;28;20042;-72
2022/03/16 08:04:07;;;;;;;23.58;20.70;;;29.00;99.50;;;;;;4164426;28;20049;-74
2022/03/16 08:06:12;;;;;;;23.38;20.90;;;29.00;99.70;;;;;;4165060;28;20384;-76
2022/03/16 08:08:25;;;;;;;22.95;20.52;;;28.90;99.40;;;;;;4164117;28;20357;-73
2022/03/16 08:10:29;;;;;;;26.77;21.77;;;28.80;99.30;;;;;;4164456;28;20443;-71
2022/03/16 08:12:35;;;;;;;25.55;20.63;;;28.80;99.50;;;;;;4164998;28;20042;-72
2022/03/16 08:14:41;;;;;;;21.38;19.17;;;28.80;99.20;;;;;;4163236;28;20048;-72
2022/03/16 08:16:47;;;;;;;25.25;20.98;;;28.90;99.20;;;;;;4164396;28;20044;-72
2022/03/16 08:18:52;;;;;;;23.48;20.95;;;29.00;99.10;;;;;;4164900;28;20053;-72
2022/03/16 08:21:06;;;;;;;23.23;20.23;;;28.90;98.90;;;;;;4162640;28;20076;-72
2022/03/16 08:23:13;;;;;;;23.27;20.80;;;28.80;99.20;;;;;;4177637;28;20630;-71
2022/03/16 08:25:30;;;;;;;23.27;20.88;;;28.80;99.00;;;;;;4163617;28;20049;-72
2022/03/16 08:27:37;;;;;;;21.92;19.67;;;28.80;99.00;;;;;;4164545;28;20104;-69
2022/03/16 08:29:42;;;;;;;24.08;21.58;;;28.80;98.60;;;;;;4190261;28;20691;-72
2022/03/16 08:31:46;;;;;;;22.35;20.02;;;29.00;98.70;;;;;;4162723;28;20106;-71
2022/03/16 08:33:56;;;;;;;27.80;20.10;;;29.10;98.40;;;;;;4163974;28;20045;-72
2022/03/16 08:36:01;;;;;;;23.23;20.20;;;29.00;98.50;;;;;;4163179;28;20046;-71
2022/03/16 08:38:06;;;;;;;22.60;20.13;;;29.20;98.30;;;;;;4163960;28;20053;-71
2022/03/16 08:40:16;;;;;;;21.55;19.30;;;29.20;98.50;;;;;;4162073;28;20061;-71
2022/03/16 08:42:22;;;;;;;22.25;19.88;;;29.20;98.60;;;;;;4162617;28;20038;-72
2022/03/16 08:44:27;;;;;;;22.08;19.35;;;29.20;98.30;;;;;;4163926;28;20613;-72
2022/03/16 08:46:35;;;;;;;25.80;20.58;;;29.10;98.50;;;;;;4163747;28;20053;-71
2022/03/16 08:48:41;;;;;;;23.48;21.08;;;29.20;98.50;;;;;;4160264;28;20112;-71
2022/03/16 08:50:45;;;;;;;22.77;20.27;;;29.30;98.50;;;;;;4167320;28;20104;-71
2022/03/16 08:52:54;;;;;;;22.15;19.25;;;29.30;98.40;;;;;;4162160;28;20420;-72
2022/03/16 08:55:00;;;;;;;23.95;19.90;;;29.20;98.40;;;;;;4161408;28;20052;-71
2022/03/16 08:57:11;;;;;;;22.95;20.48;;;29.20;98.60;;;;;;4163755;28;20049;-71
2022/03/16 08:59:20;;;;;;;25.65;20.20;;;29.10;98.50;;;;;;4162245;28;20396;-71
2022/03/16 09:01:25;;;;;;;24.67;21.25;;;28.90;99.10;;;;;;4154755;28;20041;-71
2022/03/16 09:03:31;;;;;;;24.00;21.38;;;28.90;99.20;;;;;;4159816;28;20053;-72
2022/03/16 09:05:38;;;;;;;22.15;19.60;;;29.00;99.10;;;;;;4161025;28;20045;-72
2022/03/16 09:07:42;;;;;;;24.85;20.98;;;29.10;98.90;;;;;;4156762;28;20527;-72
2022/03/16 09:09:47;;;;;;;22.38;19.23;;;29.00;98.80;;;;;;4162411;28;20045;-73
2022/03/16 09:11:56;;;;;;;23.55;19.95;;;29.00;99.10;;;;;;4162839;28;20072;-74
2022/03/16 09:14:01;;;;;;;21.70;18.83;;;29.10;99.40;;;;;;4162360;28;20124;-72
2022/03/16 09:16:07;;;;;;;22.42;19.80;;;29.10;99.30;;;;;;4179664;28;20044;-73
2022/03/16 09:18:14;;;;;;;21.95;19.63;;;29.20;99.40;;;;;;4159738;28;20610;-74
2022/03/16 09:20:23;;;;;;;21.27;18.90;;;29.30;99.30;;;;;;4181801;28;20060;-73
2022/03/16 09:22:27;;;;;;;20.90;18.55;;;29.40;99.50;;;;;;4160147;28;20048;-74
2022/03/16 09:24:38;;;;;;;20.50;17.80;;;29.20;99.10;;;;;;4182665;28;20041;-74
2022/03/16 09:26:43;;;;;;;25.50;18.67;;;29.30;99.60;;;;;;4162903;28;20048;-74
2022/03/16 09:28:48;;;;;;;20.92;18.75;;;29.30;99.50;;;;;;4162362;28;20041;-72
2022/03/16 09:30:56;;;;;;;21.48;18.35;;;29.30;99.60;;;;;;4161295;28;20048;-74
2022/03/16 09:33:02;;;;;;;21.27;18.23;;;29.20;99.50;;;;;;4164237;28;20060;-75
2022/03/16 09:35:07;;;;;;;20.65;18.55;;;29.20;99.70;;;;;;4162993;28;20476;-73
2022/03/16 09:37:15;;;;;;;20.65;18.42;;;29.20;99.40;;;;;;4162534;28;20393;-72
2022/03/16 09:39:20;;;;;;;20.98;18.77;;;29.10;99.40;;;;;;4163288;28;20045;-73
2022/03/16 09:41:28;;;;;;;21.42;19.13;;;29.10;99.70;;;;;;4161639;28;20041;-74
2022/03/16 09:43:39;;;;;;;21.17;18.70;;;29.20;99.50;;;;;;4163159;28;20523;-72
2022/03/16 09:45:51;;;;;;;24.80;19.15;;;29.20;99.20;;;;;;4103974;28;20182;-72
2022/03/16 09:47:55;;;;;;;22.58;18.75;;;29.20;99.10;;;;;;4108015;28;20057;-74
2022/03/16 09:50:03;;;;;;;24.30;19.20;;;29.10;99.40;;;;;;4079954;28;20091;-75
2022/03/16 09:52:09;;;;;;;21.38;18.27;;;29.10;99.70;;;;;;4109921;28;20051;-74
2022/03/16 09:54:14;;;;;;;22.05;18.90;;;29.10;99.70;;;;;;4094852;28;20059;-74
2022/03/16 09:56:23;;;;;;;22.63;18.52;;;29.10;99.70;;;;;;4111486;28;20061;-74
2022/03/16 09:58:28;;;;;;;21.38;18.83;;;29.00;99.70;;;;;;4111530;28;20047;-74
2022/03/16 10:00:33;;;;;;;21.38;18.77;;;29.00;99.90;;;;;;4118450;28;20490;-74
2022/03/16 10:02:40;;;;;;;22.08;18.40;;;29.00;99.90;;;;;;4111101;28;20145;-74
2022/03/16 10:04:47;;;;;;;22.52;18.95;;;29.00;99.90;;;;;;4108498;28;20082;-73
2022/03/16 10:06:52;;;;;;;19.90;17.77;;;29.00;99.90;;;;;;4106121;28;20057;-73
2022/03/16 10:13:33;;;;;;;22.95;18.80;;;29.20;99.90;;;;;;4086151;29;20117;-75
2022/03/16 10:15:43;;;;;;;22.00;19.80;;;29.00;99.90;;;;;;4079163;29;20158;-75
2022/03/16 10:18:07;;;;;;;20.58;18.05;;;29.00;99.90;;;;;;4092568;28;20091;-75
2022/03/16 10:20:32;;;;;;;26.38;18.98;;;29.00;99.90;;;;;;4095609;29;20043;-75
2022/03/16 10:22:41;;;;;;;21.70;18.77;;;28.90;99.90;;;;;;4097030;28;20110;-75
2022/03/16 10:24:46;;;;;;;21.95;19.65;;;28.80;99.90;;;;;;4127044;28;20066;-75
2022/03/16 10:26:53;;;;;;;20.52;18.17;;;28.80;99.90;;;;;;4127602;28;20046;-73
2022/03/16 10:29:04;;;;;;;21.67;18.52;;;28.70;99.90;;;;;;4112077;28;20053;-74
2022/03/16 10:31:11;;;;;;;21.70;19.00;;;28.60;99.90;;;;;;4127943;28;20054;-73
2022/03/16 10:33:16;;;;;;;22.88;18.98;;;28.60;99.90;;;;;;4124936;28;20047;-73
2022/03/16 10:35:26;;;;;;;20.45;18.35;;;28.60;99.90;;;;;;4128247;28;20038;-73
2022/03/16 10:37:35;;;;;;;21.67;18.80;;;28.60;99.90;;;;;;4127975;28;20046;-74
2022/03/16 10:39:39;;;;;;;20.02;17.95;;;28.60;99.90;;;;;;4126819;28;20053;-73
2022/03/16 10:46:35;;;;;;;22.08;18.27;;;28.60;99.90;;;;;;4140314;28;20578;-71
2022/03/16 10:48:41;;;;;;;21.88;19.48;;;28.60;99.90;;;;;;4161563;28;20512;-74
2022/03/16 10:50:46;;;;;;;22.02;19.05;;;28.60;99.90;;;;;;4132410;28;20058;-74
2022/03/16 10:52:51;;;;;;;20.27;18.10;;;28.70;99.90;;;;;;4151670;28;20042;-74